Time;durP1;ratioP1;P1;durP2;ratioP2;P2;SDS_P1;SDS_P2;PMS_P1;PMS_P2;Temp;Humidity;BMP_temperature;BMP_pressure;BME280_temperature;BME280_humidity;BME280_pressure;Samples;Min_cycle;Max_cycle;Signal;HPM_P1;HPM_P2
2022/07/27 00:00:14;;;;;;;1.77;1.60;;;;;;;;;;5092760;28;20451;-75
2022/07/27 00:02:41;;;;;;;1.23;1.13;;;;;;;;;;5092275;28;20547;-75
2022/07/27 00:05:09;;;;;;;2.93;1.30;;;;;;;;;;5095668;28;20506;-75
2022/07/27 00:07:36;;;;;;;1.60;1.20;;;;;;;;;;5095341;28;20448;-75
2022/07/27 00:10:03;;;;;;;2.90;1.10;;;;;;;;;;5092955;28;20451;-75
2022/07/27 00:12:32;;;;;;;1.70;1.57;;;;;;;;;;5092641;28;20472;-75
2022/07/27 00:14:59;;;;;;;1.93;1.83;;;;;;;;;;5093112;28;20453;-75
2022/07/27 00:17:26;;;;;;;1.90;1.17;;;;;;;;;;5092827;28;20449;-75
2022/07/27 00:19:53;;;;;;;1.60;1.50;;;;;;;;;;5092574;28;20871;-75
2022/07/27 00:22:21;;;;;;;1.57;1.47;;;;;;;;;;5092082;28;20456;-75
2022/07/27 00:24:48;;;;;;;1.70;1.50;;;;;;;;;;5092431;28;20480;-74
2022/07/27 00:27:15;;;;;;;2.63;1.67;;;;;;;;;;5093528;28;20931;-75
2022/07/27 00:29:44;;;;;;;3.40;1.43;;;;;;;;;;5099252;28;20453;-75
2022/07/27 00:32:12;;;;;;;1.33;1.23;;;19.70;47.00;;;;;;5109885;28;20471;-73
2022/07/27 00:34:39;;;;;;;1.40;1.30;;;21.10;8.90;;;;;;5107284;28;20540;-76
2022/07/27 00:37:06;;;;;;;1.60;1.50;;;20.90;7.20;;;;;;5102825;28;20812;-76
2022/07/27 00:39:33;;;;;;;2.20;1.40;;;21.00;8.00;;;;;;5097678;28;20515;-76
2022/07/27 00:42:00;;;;;;;1.60;1.50;;;21.10;7.40;;;;;;5094734;28;20445;-76
2022/07/27 00:44:27;;;;;;;1.50;1.17;;;21.10;7.80;;;;;;5093951;28;20503;-76
2022/07/27 00:46:56;;;;;;;1.53;1.40;;;21.00;7.90;;;;;;5093112;28;20445;-75
2022/07/27 00:49:25;;;;;;;1.83;1.70;;;20.90;8.10;;;;;;5093579;28;20490;-75
2022/07/27 00:51:53;;;;;;;3.50;1.20;;;20.70;10.20;;;;;;5092246;28;20452;-76
2022/07/27 00:54:21;;;;;;;3.77;1.50;;;21.10;9.30;;;;;;5092064;28;20456;-76
2022/07/27 00:56:49;;;;;;;1.80;1.70;;;21.10;8.10;;;;;;5092245;28;20457;-75
2022/07/27 00:59:16;;;;;;;1.60;1.50;;;21.20;7.70;;;;;;5092325;28;20449;-75
2022/07/27 01:01:42;;;;;;;1.60;1.50;;;21.20;7.10;;;;;;5091378;28;20463;-74
2022/07/27 01:04:11;;;;;;;1.77;1.30;;;20.90;9.70;;;;;;5091398;28;20526;-74
2022/07/27 01:06:38;;;;;;;1.93;1.47;;;20.50;14.20;;;;;;5102486;28;20492;-75
2022/07/27 01:11:49;;;;;;;1.90;1.70;;;20.20;23.10;;;;;;5091020;28;20424;-74
2022/07/27 01:14:17;;;;;;;1.60;1.33;;;20.10;27.20;;;;;;5091476;28;20453;-75
2022/07/27 01:16:45;;;;;;;1.73;1.63;;;20.30;29.80;;;;;;5091242;28;20812;-75
2022/07/27 01:19:14;;;;;;;1.83;1.73;;;20.50;26.60;;;;;;5091692;28;20437;-75
2022/07/27 01:21:42;;;;;;;1.77;1.67;;;20.70;21.90;;;;;;5091256;28;20502;-76
2022/07/27 01:24:10;;;;;;;2.70;1.67;;;20.70;21.20;;;;;;5091057;28;20528;-75
2022/07/27 01:26:38;;;;;;;1.60;1.50;;;20.80;20.70;;;;;;5091064;28;20550;-75
2022/07/27 01:29:05;;;;;;;1.40;1.20;;;20.80;18.30;;;;;;5092028;28;20451;-75
2022/07/27 01:31:32;;;;;;;1.93;1.43;;;20.70;19.60;;;;;;5091683;28;20444;-75
2022/07/27 01:33:59;;;;;;;2.93;1.80;;;20.80;21.00;;;;;;5091153;28;20496;-75
2022/07/27 01:36:26;;;;;;;1.87;1.77;;;20.70;19.60;;;;;;5094420;28;20444;-75
2022/07/27 01:38:55;;;;;;;2.13;1.93;;;20.50;22.50;;;;;;5090423;28;20682;-75
2022/07/27 01:41:22;;;;;;;3.37;1.70;;;20.20;26.00;;;;;;5091071;28;20968;-75
2022/07/27 01:43:49;;;;;;;3.00;1.60;;;20.00;37.20;;;;;;5090226;28;20445;-74
2022/07/27 01:46:15;;;;;;;1.97;1.77;;;20.10;39.60;;;;;;5091490;28;20484;-74
2022/07/27 01:48:45;;;;;;;1.63;1.53;;;19.90;43.60;;;;;;5090976;28;20659;-75
2022/07/27 01:51:12;;;;;;;1.50;1.40;;;20.30;41.80;;;;;;5091478;28;20448;-75
2022/07/27 01:53:39;;;;;;;1.60;1.50;;;20.30;38.90;;;;;;5090198;28;20449;-75
2022/07/27 01:56:11;;;;;;;2.20;1.80;;;20.10;46.10;;;;;;5091184;28;20449;-75
2022/07/27 01:58:39;;;;;;;2.10;1.90;;;20.00;56.60;;;;;;5090596;28;20441;-75
2022/07/27 02:01:06;;;;;;;2.27;1.87;;;19.90;63.80;;;;;;5091942;28;20867;-74
2022/07/27 02:03:34;;;;;;;1.90;1.80;;;19.70;76.90;;;;;;5093832;28;20815;-69
2022/07/27 02:06:01;;;;;;;1.73;1.57;;;19.70;99.90;;;;;;5099114;28;20476;-75
2022/07/27 02:08:28;;;;;;;1.77;1.67;;;19.60;99.90;;;;;;5100071;28;20854;-75
2022/07/27 02:13:43;;;;;;;4.07;2.03;;;19.50;99.90;;;;;;5111795;28;20408;-72
2022/07/27 02:16:10;;;;;;;1.73;1.63;;;19.70;99.90;;;;;;5114206;28;20484;-74
2022/07/27 02:18:37;;;;;;;3.00;1.77;;;19.60;99.90;;;;;;5112661;28;20429;-74
2022/07/27 02:21:05;;;;;;;1.83;1.50;;;19.60;99.90;;;;;;5093671;28;20793;-72
2022/07/27 02:23:32;;;;;;;1.70;1.60;;;19.70;99.90;;;;;;5091782;28;20966;-74
2022/07/27 02:25:59;;;;;;;2.23;2.07;;;19.60;99.90;;;;;;5081456;28;20563;-74
2022/07/27 02:28:26;;;;;;;2.03;1.83;;;19.80;99.90;;;;;;5094205;28;20445;-75
2022/07/27 02:30:55;;;;;;;2.60;1.70;;;20.00;99.90;;;;;;5094213;28;20452;-73
2022/07/27 02:33:21;;;;;;;1.70;1.60;;;20.20;99.90;;;;;;5085861;28;20458;-74
2022/07/27 02:35:48;;;;;;;2.20;1.30;;;20.30;99.90;;;;;;5097466;28;20527;-74
2022/07/27 02:38:15;;;;;;;1.90;1.70;;;20.40;95.90;;;;;;5094430;28;20946;-75
2022/07/27 02:40:42;;;;;;;2.00;1.80;;;20.40;91.00;;;;;;5093074;28;20464;-74
2022/07/27 02:43:09;;;;;;;2.70;1.80;;;20.30;90.10;;;;;;5094103;28;20532;-75
2022/07/27 02:45:36;;;;;;;2.00;1.80;;;20.10;94.00;;;;;;5093989;28;20480;-74
2022/07/27 02:48:04;;;;;;;2.63;1.87;;;20.20;96.40;;;;;;5094327;28;20532;-73
2022/07/27 02:50:32;;;;;;;2.70;2.00;;;20.20;94.10;;;;;;5094819;28;20449;-75
2022/07/27 02:52:58;;;;;;;1.87;1.67;;;19.90;99.90;;;;;;5094219;28;20484;-75
2022/07/27 02:55:25;;;;;;;1.80;1.50;;;20.00;99.90;;;;;;5093658;28;20457;-75
2022/07/27 02:57:52;;;;;;;2.50;1.90;;;20.10;99.90;;;;;;5093513;28;20993;-74
2022/07/27 03:00:19;;;;;;;1.43;1.33;;;20.20;97.40;;;;;;5094211;28;21002;-74
2022/07/27 03:02:48;;;;;;;3.00;1.60;;;19.90;99.90;;;;;;5093649;28;20453;-74
2022/07/27 03:05:17;;;;;;;2.13;1.93;;;20.10;99.90;;;;;;5093781;28;20522;-75
2022/07/27 03:07:44;;;;;;;2.17;1.63;;;20.30;99.90;;;;;;5093693;28;20544;-75
2022/07/27 03:10:11;;;;;;;2.20;2.00;;;20.30;99.10;;;;;;5094019;28;20471;-75
2022/07/27 03:12:37;;;;;;;2.27;2.07;;;20.30;97.30;;;;;;5093321;28;20457;-74
2022/07/27 03:15:05;;;;;;;2.60;2.10;;;20.30;97.50;;;;;;5094014;28;20449;-74
2022/07/27 03:17:32;;;;;;;2.23;2.03;;;20.00;99.90;;;;;;5093636;28;20447;-75
2022/07/27 03:19:59;;;;;;;2.53;1.93;;;20.00;99.90;;;;;;5093888;28;20444;-75
2022/07/27 03:22:31;;;;;;;2.10;1.90;;;20.10;99.90;;;;;;5093409;28;20463;-75
2022/07/27 03:24:58;;;;;;;4.73;2.80;;;20.20;99.90;;;;;;5080770;28;20447;-75
2022/07/27 03:27:25;;;;;;;2.43;2.23;;;20.20;99.90;;;;;;5093644;28;20548;-75
2022/07/27 03:29:51;;;;;;;1.40;1.30;;;20.20;99.90;;;;;;5093427;28;20445;-74
2022/07/27 03:32:18;;;;;;;2.40;2.20;;;20.30;99.90;;;;;;5093205;28;20444;-74
2022/07/27 03:34:45;;;;;;;3.50;2.57;;;20.10;99.90;;;;;;5092864;28;20560;-75
2022/07/27 03:37:12;;;;;;;1.90;1.70;;;20.00;99.90;;;;;;5094837;28;20457;-75
2022/07/27 03:39:40;;;;;;;2.27;1.97;;;19.90;99.90;;;;;;5092820;28;20449;-74
2022/07/27 03:42:07;;;;;;;2.53;1.97;;;19.50;99.90;;;;;;5092500;28;20535;-70
2022/07/27 03:44:34;;;;;;;2.50;1.93;;;19.10;99.90;;;;;;5092482;28;20460;-70
2022/07/27 03:47:01;;;;;;;2.40;1.90;;;18.90;99.90;;;;;;5092969;28;20806;-70
2022/07/27 03:49:28;;;;;;;2.50;2.30;;;18.80;99.90;;;;;;5093714;28;20535;-70
2022/07/27 03:51:55;;;;;;;2.60;1.93;;;19.00;99.90;;;;;;5092448;28;20456;-71
2022/07/27 03:54:22;;;;;;;2.53;2.23;;;19.10;99.90;;;;;;5092939;28;20797;-70
2022/07/27 03:56:50;;;;;;;2.47;2.27;;;18.90;99.90;;;;;;5092239;28;20457;-70
2022/07/27 03:59:17;;;;;;;4.20;2.13;;;18.80;99.90;;;;;;5092990;28;20451;-70
2022/07/27 04:01:44;;;;;;;2.57;1.90;;;18.80;99.90;;;;;;5092657;28;20496;-69
2022/07/27 04:04:11;;;;;;;2.20;2.00;;;18.70;99.90;;;;;;5092232;28;20526;-70
2022/07/27 04:06:38;;;;;;;2.37;1.77;;;18.60;99.90;;;;;;5104205;28;20990;-70
2022/07/27 04:09:05;;;;;;;2.37;2.17;;;18.50;1.00;;;;;;5094053;28;20456;-72
2022/07/27 04:11:32;;;;;;;3.37;2.43;;;18.40;1.00;;;;;;5100376;28;20932;-72
2022/07/27 04:14:00;;;;;;;3.37;2.30;;;18.30;1.00;;;;;;5099702;28;20477;-71
2022/07/27 04:16:27;;;;;;;2.77;2.57;;;18.30;1.00;;;;;;5101050;28;20452;-70
2022/07/27 04:18:54;;;;;;;3.10;2.03;;;18.60;1.00;;;;;;5094509;28;20495;-72
2022/07/27 04:21:21;;;;;;;3.43;2.60;;;18.70;1.00;;;;;;5093162;28;20479;-70
2022/07/27 04:23:47;;;;;;;3.00;2.47;;;19.00;1.00;;;;;;5092320;28;20440;-69
2022/07/27 04:26:14;;;;;;;4.07;1.80;;;19.10;99.90;;;;;;5082802;28;20485;-70
2022/07/27 04:28:41;;;;;;;1.97;1.50;;;19.10;99.90;;;;;;5091330;28;20444;-69
2022/07/27 04:31:09;;;;;;;2.80;2.20;;;19.10;99.90;;;;;;5092526;28;20466;-69
2022/07/27 04:33:36;;;;;;;3.60;2.10;;;19.10;99.90;;;;;;5092059;28;20541;-72
2022/07/27 04:36:04;;;;;;;1.93;1.73;;;19.30;99.90;;;;;;5095636;28;20536;-69
2022/07/27 04:38:31;;;;;;;2.13;1.97;;;19.50;99.90;;;;;;5092942;28;20780;-69
2022/07/27 04:40:58;;;;;;;3.53;1.97;;;19.60;99.90;;;;;;5092110;28;20535;-69
2022/07/27 04:43:25;;;;;;;3.10;2.40;;;19.80;99.90;;;;;;5091995;28;20448;-69
2022/07/27 04:45:53;;;;;;;2.17;1.97;;;19.80;99.90;;;;;;5091173;28;20501;-76
2022/07/27 04:48:21;;;;;;;4.90;2.70;;;19.80;99.90;;;;;;5092951;28;20436;-72
2022/07/27 04:50:48;;;;;;;2.57;2.37;;;19.90;99.90;;;;;;5092554;28;20492;-73
2022/07/27 04:53:16;;;;;;;4.53;4.23;;;19.60;99.90;;;;;;5091407;28;20449;-74
2022/07/27 04:55:44;;;;;;;2.17;1.97;;;19.60;99.90;;;;;;5095501;28;20444;-70
2022/07/27 04:58:11;;;;;;;2.50;2.30;;;19.90;99.90;;;;;;5091660;28;20484;-70
2022/07/27 05:00:38;;;;;;;2.13;2.00;;;20.00;99.90;;;;;;5091457;28;20955;-69
2022/07/27 05:03:05;;;;;;;2.93;2.70;;;19.70;99.90;;;;;;5091539;28;20449;-73
2022/07/27 05:05:33;;;;;;;3.57;2.60;;;19.80;99.90;;;;;;5098558;28;20456;-73
2022/07/27 05:08:00;;;;;;;3.00;2.70;;;19.80;99.90;;;;;;5096200;28;20444;-73
2022/07/27 05:10:27;;;;;;;2.63;2.43;;;20.10;99.90;;;;;;5092161;28;20444;-73
2022/07/27 05:12:54;;;;;;;2.20;2.07;;;20.10;99.90;;;;;;5091226;28;20535;-72
2022/07/27 05:15:22;;;;;;;2.40;2.20;;;20.20;99.90;;;;;;5091028;28;20472;-70
2022/07/27 05:17:50;;;;;;;2.63;2.33;;;20.10;99.90;;;;;;5091293;28;20535;-70
2022/07/27 05:20:18;;;;;;;3.43;2.40;;;20.10;99.90;;;;;;5091629;28;20540;-70
2022/07/27 05:22:46;;;;;;;2.30;2.10;;;19.60;99.90;;;;;;5091336;28;20445;-70
2022/07/27 05:25:13;;;;;;;2.90;2.60;;;;;;;;;;5091037;28;20943;-71
2022/07/27 05:27:40;;;;;;;2.90;2.50;;;;;;;;;;5090938;28;20483;-70
2022/07/27 05:30:08;;;;;;;2.83;2.23;;;;;;;;;;5091721;28;20452;-70
2022/07/27 05:32:35;;;;;;;2.77;2.57;;;;;;;;;;5090977;28;20830;-70
2022/07/27 05:35:03;;;;;;;3.20;2.30;;;;;;;;;;5093208;28;20500;-70
2022/07/27 05:37:30;;;;;;;3.50;2.70;;;;;;;;;;5092513;28;20477;-70
2022/07/27 05:39:58;;;;;;;2.13;1.97;;;;;;;;;;5090782;28;20453;-71
2022/07/27 05:42:25;;;;;;;2.50;2.30;;;;;;;;;;5091174;28;20457;-71
2022/07/27 05:44:54;;;;;;;2.60;2.40;;;;;;;;;;5090511;28;20536;-70
2022/07/27 05:47:21;;;;;;;6.40;2.70;;;;;;;;;;5091240;28;20502;-70
2022/07/27 05:49:48;;;;;;;2.80;2.60;;;;;;;;;;5090900;28;20455;-70
2022/07/27 05:52:15;;;;;;;2.60;2.40;;;;;;;;;;5091132;28;20449;-71
2022/07/27 05:54:43;;;;;;;2.60;2.40;;;;;;;;;;5090324;28;20448;-70
2022/07/27 05:57:11;;;;;;;3.33;3.00;;;;;;;;;;5091149;28;20456;-70
2022/07/27 05:59:39;;;;;;;3.03;2.40;;;;;;;;;;5094933;28;20453;-71
2022/07/27 06:02:06;;;;;;;2.93;2.43;;;;;;;;;;5095250;28;20483;-70
2022/07/27 06:04:33;;;;;;;2.70;2.50;;;;;;;;;;5095137;28;20440;-71
2022/07/27 06:09:45;;;;;;;3.37;2.30;;;;;;;;;;5094581;28;20806;-73
2022/07/27 06:12:13;;;;;;;2.67;2.47;;;;;;;;;;5095257;28;20451;-70
2022/07/27 06:14:41;;;;;;;3.00;2.63;;;;;;;;;;5094145;28;20444;-71
2022/07/27 06:17:09;;;;;;;2.50;2.30;;;;;;;;;;5095561;28;20752;-70
2022/07/27 06:19:38;;;;;;;3.00;2.67;;;;;;;;;;5095189;28;20834;-71
2022/07/27 06:22:05;;;;;;;2.57;2.37;;;;;;;;;;5096741;28;20865;-70
2022/07/27 06:24:33;;;;;;;2.77;2.57;;;;;;;;;;5097349;28;20436;-71
2022/07/27 06:27:00;;;;;;;2.10;2.00;;;;;;;;;;5096318;28;20485;-71
2022/07/27 06:29:29;;;;;;;2.93;2.73;;;;;;;;;;5094701;28;20448;-71
2022/07/27 06:31:56;;;;;;;2.70;2.40;;;;;;;;;;5094593;28;20520;-71
2022/07/27 06:34:23;;;;;;;2.90;2.70;;;;;;;;;;5094341;28;20472;-70
2022/07/27 06:36:51;;;;;;;2.53;2.33;;;;;;;;;;5097076;28;20444;-70
2022/07/27 06:39:19;;;;;;;3.10;2.80;;;;;;;;;;5094827;28;20444;-70
2022/07/27 06:41:47;;;;;;;3.17;2.87;;;;;;;;;;5094093;28;20523;-70
2022/07/27 06:44:14;;;;;;;2.50;2.30;;;;;;;;;;5094317;28;20841;-70
2022/07/27 06:46:43;;;;;;;2.20;2.10;;;;;;;;;;5094072;28;20488;-71
2022/07/27 06:49:10;;;;;;;2.70;2.50;;;;;;;;;;5094618;28;20819;-71
2022/07/27 06:51:38;;;;;;;2.43;2.23;;;;;;;;;;5093705;28;21215;-70
2022/07/27 06:54:05;;;;;;;2.60;2.03;;;;;;;;;;5094191;28;20825;-71
2022/07/27 06:56:33;;;;;;;3.20;2.33;;;;;;;;;;5094227;28;20455;-71
2022/07/27 06:59:00;;;;;;;2.40;2.20;;;;;;;;;;5094688;28;20451;-71
2022/07/27 07:01:27;;;;;;;3.30;2.77;;;;;;;;;;5094099;28;20445;-71
2022/07/27 07:03:58;;;;;;;3.50;2.30;;;;;;;;;;5093481;28;20466;-70
2022/07/27 07:06:25;;;;;;;3.40;2.73;;;;;;;;;;5106273;28;20436;-71
2022/07/27 07:08:52;;;;;;;2.60;2.40;;;;;;;;;;5092943;28;20866;-70
2022/07/27 07:11:19;;;;;;;4.93;2.53;;;;;;;;;;5093643;28;20459;-71
2022/07/27 07:13:47;;;;;;;2.60;2.40;;;;;;;;;;5093162;28;20448;-72
2022/07/27 07:16:14;;;;;;;2.50;2.30;;;;;;;;;;5094174;28;20452;-71
2022/07/27 07:18:41;;;;;;;6.13;2.37;;;;;;;;;;5093181;28;20445;-71
2022/07/27 07:21:10;;;;;;;3.20;2.50;;;;;;;;;;5093995;28;20532;-71
2022/07/27 07:23:37;;;;;;;2.97;2.73;;;;;;;;;;5093246;28;20995;-71
2022/07/27 07:26:05;;;;;;;2.40;2.20;;;;;;;;;;5093259;28;20830;-70
2022/07/27 07:28:35;;;;;;;2.13;1.93;;;;;;;;;;5093824;28;21009;-71
2022/07/27 07:31:02;;;;;;;2.00;1.87;;;;;;;;;;5093948;28;20444;-71
2022/07/27 07:33:29;;;;;;;2.80;2.60;;;;;;;;;;5093611;28;20987;-71
2022/07/27 07:35:56;;;;;;;3.17;2.23;;;;;;;;;;5096007;28;20441;-71
2022/07/27 07:38:24;;;;;;;2.50;2.30;;;;;;;;;;5093701;28;20877;-71
2022/07/27 07:40:52;;;;;;;2.90;2.23;;;;;;;;;;5092998;28;20471;-71
2022/07/27 07:43:19;;;;;;;2.50;2.30;;;;;;;;;;5093780;28;20527;-71
2022/07/27 07:45:46;;;;;;;2.90;2.10;;;;;;;;;;5092671;28;20473;-71
2022/07/27 07:48:13;;;;;;;4.20;2.40;;;;;;;;;;5093520;28;20481;-71
2022/07/27 07:50:40;;;;;;;2.87;2.60;;;;;;;;;;5092868;28;20532;-72
2022/07/27 07:53:07;;;;;;;5.60;2.37;;;;;;;;;;5093436;28;20514;-71
2022/07/27 07:55:36;;;;;;;4.80;2.57;;;;;;;;;;5092054;28;20452;-71
2022/07/27 07:58:03;;;;;;;4.10;2.40;;;;;;;;;;5093667;28;20826;-72
2022/07/27 08:00:30;;;;;;;3.10;2.33;;;;;;;;;;5093166;28;20539;-72
2022/07/27 08:02:58;;;;;;;2.57;2.10;;;;;;;;;;5092389;28;20461;-72
2022/07/27 08:05:25;;;;;;;2.40;2.20;;;;;;;;;;5097995;28;20542;-72
2022/07/27 08:07:53;;;;;;;3.00;2.63;;;;;;;;;;5098689;28;20571;-71
2022/07/27 08:10:21;;;;;;;3.10;2.80;;;;;;;;;;5092648;28;20811;-72
2022/07/27 08:12:51;;;;;;;2.63;2.40;;;;;;;;;;5092732;28;20455;-71
2022/07/27 08:15:19;;;;;;;2.60;2.40;;;;;;;;;;5092442;28;20452;-72
2022/07/27 08:17:46;;;;;;;2.40;2.20;;;;;;;;;;5092796;28;20449;-73
2022/07/27 08:20:14;;;;;;;3.53;2.97;;;;;;;;;;5093246;28;20448;-72
2022/07/27 08:22:41;;;;;;;2.20;2.00;;;;;;;;;;5092947;28;20529;-71
2022/07/27 08:25:09;;;;;;;4.50;2.70;;;;;;;;;;5098882;28;20445;-72
2022/07/27 08:27:37;;;;;;;3.03;2.50;;;;;;;;;;5101191;28;20488;-72
2022/07/27 08:30:06;;;;;;;2.00;1.90;;;;;;;;;;5100087;28;20638;-69
2022/07/27 08:32:33;;;;;;;2.03;1.93;;;;;;;;;;5094858;28;20535;-72
2022/07/27 08:35:00;;;;;;;2.53;1.87;;;;;;;;;;5093240;28;20473;-72
2022/07/27 08:37:27;;;;;;;2.40;2.10;;;;;;;;;;5094199;28;20440;-72
2022/07/27 08:39:54;;;;;;;3.13;2.13;;;;;;;;;;5092994;28;20448;-72
2022/07/27 08:42:22;;;;;;;2.80;2.60;;;;;;;;;;5093171;28;20523;-71
2022/07/27 08:44:49;;;;;;;3.07;2.70;;;;;;;;;;5092150;28;20806;-71
2022/07/27 08:47:18;;;;;;;2.40;2.20;;;;;;;;;;5092328;28;21006;-71
2022/07/27 08:49:45;;;;;;;3.10;2.60;;;;;;;;;;5092180;28;20872;-72
2022/07/27 08:52:13;;;;;;;4.03;2.60;;;;;;;;;;5092288;28;20998;-73
2022/07/27 08:54:41;;;;;;;2.90;2.53;;;;;;;;;;5091721;28;20445;-71
2022/07/27 08:57:08;;;;;;;2.60;2.40;;;;;;;;;;5092104;28;20542;-72
2022/07/27 08:59:36;;;;;;;2.70;2.50;;;;;;;;;;5091913;28;20466;-72
2022/07/27 09:02:03;;;;;;;3.17;2.47;;;;;;;;;;5092420;28;20449;-72
2022/07/27 09:04:32;;;;;;;2.73;2.50;;;;;;;;;;5091917;28;20491;-72
2022/07/27 09:06:59;;;;;;;2.87;2.60;;;;;;;;;;5103686;28;20445;-71
2022/07/27 09:09:26;;;;;;;3.20;2.90;;;;;;;;;;5091934;28;20531;-73
2022/07/27 09:12:04;;;;;;;2.87;2.67;;;;;;;;;;5091223;28;20848;-72
2022/07/27 09:14:31;;;;;;;2.70;2.13;;;;;;;;;;5091656;28;20799;-73
2022/07/27 09:16:59;;;;;;;3.90;2.40;;;;;;;;;;5092334;28;20445;-72
2022/07/27 09:19:26;;;;;;;3.03;2.60;;;;;;;;;;5091795;28;20450;-72
2022/07/27 09:21:54;;;;;;;3.40;2.80;;;;;;;;;;5091263;28;21129;-71
2022/07/27 09:24:22;;;;;;;2.60;2.40;;;;;;;;;;5091054;28;20932;-72
2022/07/27 09:26:49;;;;;;;2.00;1.90;;;;;;;;;;5091105;28;20451;-71
2022/07/27 09:29:17;;;;;;;3.30;3.00;;;;;;;;;;5091698;28;20880;-71
2022/07/27 09:31:44;;;;;;;2.47;2.27;;;;;;;;;;5091056;28;20449;-71
2022/07/27 09:34:12;;;;;;;2.53;2.33;;;;;;;;;;5090723;28;20559;-71
2022/07/27 09:36:50;;;;;;;2.53;2.33;;;;;;;;;;5094033;28;20447;-71
2022/07/27 09:39:20;;;;;;;2.60;2.40;;;;;;;;;;5091575;28;20467;-72
2022/07/27 09:41:49;;;;;;;2.53;2.30;;;;;;;;;;5090972;28;20795;-71
2022/07/27 09:44:17;;;;;;;3.53;2.63;;;;;;;;;;5090952;28;20623;-72
2022/07/27 09:46:45;;;;;;;2.70;2.50;;;;;;;;;;5091058;28;20445;-71
2022/07/27 09:49:27;;;;;;;2.60;2.40;;;;;;;;;;5091622;28;20481;-72
2022/07/27 09:51:54;;;;;;;2.80;2.60;;;;;;;;;;5091059;28;20487;-71
2022/07/27 09:54:23;;;;;;;2.90;2.60;;;;;;;;;;5090935;28;20966;-72
2022/07/27 09:56:58;;;;;;;2.50;2.30;;;;;;;;;;5090658;28;20962;-72
2022/07/27 09:59:26;;;;;;;3.13;2.63;;;;;;;;;;5091612;28;20444;-72
2022/07/27 10:01:54;;;;;;;2.30;2.00;;;;;;;;;;5090983;28;20445;-72
2022/07/27 10:04:21;;;;;;;2.40;2.20;;;;;;;;;;5091313;28;20800;-72
2022/07/27 10:06:48;;;;;;;3.37;3.07;;;;;;;;;;5102355;28;20794;-71
2022/07/27 10:09:15;;;;;;;3.40;2.50;;;;;;;;;;5091384;28;20481;-72
2022/07/27 10:11:44;;;;;;;2.53;2.33;;;;;;;;;;5090744;28;20444;-72
2022/07/27 10:14:11;;;;;;;3.23;2.50;;;;;;;;;;5090770;28;20445;-72
2022/07/27 10:16:39;;;;;;;3.03;2.83;;;;;;;;;;5090664;28;20971;-73
2022/07/27 10:19:08;;;;;;;2.50;2.00;;;;;;;;;;5091268;28;20447;-72
2022/07/27 10:21:36;;;;;;;2.90;1.90;;;;;;;;;;5090776;28;20476;-71
2022/07/27 10:24:04;;;;;;;3.47;3.17;;;;;;;;;;5090863;28;20456;-71
2022/07/27 10:26:33;;;;;;;2.97;2.73;;;;;;;;;;5092324;28;20457;-72
2022/07/27 10:29:03;;;;;;;4.43;2.30;;;;;;;;;;5093540;28;20563;-72
2022/07/27 10:31:30;;;;;;;2.17;2.00;;;;;;;;;;5096599;28;20449;-73
2022/07/27 10:33:59;;;;;;;2.53;2.33;;;;;;;;;;5094939;28;20481;-73
2022/07/27 10:36:46;;;;;;;1.97;1.87;;;;;;;;;;5095648;28;20444;-73
2022/07/27 10:39:25;;;;;;;2.73;2.50;;;;;;;;;;5092730;28;20453;-73
2022/07/27 10:41:52;;;;;;;2.83;2.53;;;;;;;;;;5091248;28;20451;-73
2022/07/27 10:44:30;;;;;;;2.40;2.20;;;;;;;;;;5092017;28;20440;-72
2022/07/27 10:46:58;;;;;;;2.50;2.30;;;;;;;;;;5095895;28;20862;-75
2022/07/27 10:49:26;;;;;;;3.37;2.57;;;;;;;;;;5094552;28;20488;-73
2022/07/27 10:51:54;;;;;;;2.77;2.57;;;;;;;;;;5094058;28;20740;-73
2022/07/27 10:54:22;;;;;;;2.10;2.00;;;;;;;;;;5094361;28;20877;-73
2022/07/27 10:56:49;;;;;;;2.60;2.40;;;;;;;;;;5094192;28;20447;-72
2022/07/27 10:59:32;;;;;;;2.53;2.33;;;;;;;;;;5094882;28;20463;-73
2022/07/27 11:02:00;;;;;;;3.30;2.30;;;;;;;;;;5094142;28;20484;-73
2022/07/27 11:04:27;;;;;;;2.50;2.30;;;;;;;;;;5093838;28;20452;-73
2022/07/27 11:06:56;;;;;;;2.07;1.87;;;;;;;;;;5106830;28;20531;-73
2022/07/27 11:09:24;;;;;;;3.30;2.23;;;;;;;;;;5094406;28;20589;-73
2022/07/27 11:11:52;;;;;;;2.10;2.00;;;;;;;;;;5093765;28;20463;-72
2022/07/27 11:14:19;;;;;;;2.67;1.87;;;;;;;;;;5093561;28;20451;-73
2022/07/27 11:16:47;;;;;;;1.93;1.83;;;;;;;;;;5093656;28;20506;-73
2022/07/27 11:19:18;;;;;;;1.90;1.80;;;;;;;;;;5093918;28;20453;-73
2022/07/27 11:21:47;;;;;;;2.03;1.93;;;;;;;;;;5093471;28;20467;-72
2022/07/27 11:24:16;;;;;;;2.30;2.10;;;;;;;;;;5093531;28;20858;-72
2022/07/27 11:26:44;;;;;;;2.57;2.27;;;;;;;;;;5093465;28;20476;-73
2022/07/27 11:29:12;;;;;;;2.80;1.90;;;;;;;;;;5093458;28;20488;-74
2022/07/27 11:31:40;;;;;;;3.00;2.53;;;;;;;;;;5093297;28;20476;-74
2022/07/27 11:34:07;;;;;;;2.20;2.00;;;;;;;;;;5093194;28;20483;-72
2022/07/27 11:36:37;;;;;;;5.50;2.33;;;;;;;;;;5093367;28;20790;-72
2022/07/27 11:39:05;;;;;;;1.93;1.63;;;;;;;;;;5093699;28;20455;-72
2022/07/27 11:41:34;;;;;;;1.90;1.80;;;;;;;;;;5093851;28;20448;-73
2022/07/27 11:44:02;;;;;;;2.43;2.23;;;;;;;;;;5093384;28;20532;-73
2022/07/27 11:46:30;;;;;;;1.83;1.60;;;;;;;;;;5093978;28;20460;-74
2022/07/27 11:48:59;;;;;;;2.20;1.87;;;;;;;;;;5092728;28;20480;-72
2022/07/27 11:51:26;;;;;;;2.07;1.70;;;;;;;;;;5093841;28;20811;-73
2022/07/27 11:53:58;;;;;;;1.90;1.80;;;;;;;;;;5092276;28;20449;-73
2022/07/27 11:56:26;;;;;;;2.63;1.97;;;;;;;;;;5092813;28;20800;-74
2022/07/27 11:59:00;;;;;;;2.47;2.20;;;;;;;;;;5093093;28;20448;-73
2022/07/27 12:01:29;;;;;;;1.90;1.80;;;;;;;;;;5093131;28;20444;-73
2022/07/27 12:04:06;;;;;;;1.90;1.80;;;;;;;;;;5092383;28;20547;-73
2022/07/27 12:06:34;;;;;;;1.80;1.70;;;;;;;;;;5104386;28;20459;-70
2022/07/27 12:09:05;;;;;;;2.03;1.83;;;;;;;;;;5093320;28;20848;-73
2022/07/27 12:11:45;;;;;;;1.67;1.57;;;;;;;;;;5092923;28;20451;-73
2022/07/27 12:14:13;;;;;;;1.77;1.67;;;;;;;;;;5092781;28;20437;-73
2022/07/27 12:16:40;;;;;;;2.07;1.50;;;;;;;;;;5093193;28;20459;-73
2022/07/27 12:19:07;;;;;;;1.90;1.67;;;;;;;;;;5098900;28;20465;-73
2022/07/27 12:21:34;;;;;;;2.77;1.67;;;;;;;;;;5105174;28;20447;-73
2022/07/27 12:24:03;;;;;;;1.57;1.47;;;;;;;;;;5101573;28;20476;-73
2022/07/27 12:26:30;;;;;;;1.67;1.57;;;;;;;;;;5102222;28;20441;-73
2022/07/27 12:29:07;;;;;;;3.00;1.97;;;;;;;;;;5099019;28;21050;-74
2022/07/27 12:31:36;;;;;;;1.50;1.40;;;;;;;;;;5081168;28;20460;-72
2022/07/27 12:34:05;;;;;;;1.90;1.80;;;;;;;;;;5092979;28;20476;-73
2022/07/27 12:36:32;;;;;;;1.30;1.20;;;;;;;;;;5097195;28;20445;-73
2022/07/27 12:38:59;;;;;;;1.87;1.60;;;;;;;;;;5093584;28;20822;-73
2022/07/27 12:41:29;;;;;;;2.00;1.80;;;;;;;;;;5093906;28;20498;-73
2022/07/27 12:44:06;;;;;;;1.40;1.30;;;;;;;;;;5092454;28;20448;-74
2022/07/27 12:46:33;;;;;;;1.60;1.50;;;;;;;;;;5093491;28;20498;-73
2022/07/27 12:49:00;;;;;;;3.20;1.80;;;;;;;;;;5093267;28;20846;-73
2022/07/27 12:51:27;;;;;;;2.27;1.60;;;;;;;;;;5093048;28;20753;-73
2022/07/27 12:53:54;;;;;;;1.57;1.47;;;;;;;;;;5091936;28;20460;-72
2022/07/27 12:56:22;;;;;;;3.10;1.63;;;;;;;;;;5092438;28;20534;-73
2022/07/27 12:59:00;;;;;;;2.70;2.13;;;;;;;;;;5091896;28;20821;-73
2022/07/27 13:01:27;;;;;;;1.30;1.20;;;;;;;;;;5089595;28;20456;-73
2022/07/27 13:03:54;;;;;;;1.53;1.43;;;;;;;;;;5090594;28;20456;-73
2022/07/27 13:06:22;;;;;;;1.50;1.40;;;;;;;;;;5095875;28;20532;-73
2022/07/27 13:08:49;;;;;;;3.00;1.80;;;;;;;;;;5090660;28;20546;-72
2022/07/27 13:11:16;;;;;;;1.70;1.57;;;;;;;;;;5091121;28;20444;-73
2022/07/27 13:13:43;;;;;;;1.47;1.37;;;;;;;;;;5090352;28;20899;-73
2022/07/27 13:16:12;;;;;;;2.70;1.77;;;;;;;;;;5091734;28;20445;-73
2022/07/27 13:18:39;;;;;;;2.43;1.77;;;;;;;;;;5090939;28;20449;-72
2022/07/27 13:21:06;;;;;;;1.90;1.80;;;;;;;;;;5091054;28;20451;-72
2022/07/27 13:23:33;;;;;;;1.43;1.33;;;;;;;;;;5090908;28;20466;-74
2022/07/27 13:26:00;;;;;;;1.97;1.87;;;;;;;;;;5085796;28;20475;-73
2022/07/27 13:28:27;;;;;;;2.40;2.20;;;;;;;;;;5090995;28;20559;-73
2022/07/27 13:30:55;;;;;;;1.83;1.70;;;;;;;;;;5091542;28;20448;-73
2022/07/27 13:33:24;;;;;;;1.73;1.63;;;;;;;;;;5090461;28;20448;-73
2022/07/27 13:35:51;;;;;;;1.90;1.37;;;;;;;;;;5093896;28;20449;-73
2022/07/27 13:38:18;;;;;;;1.40;1.30;;;;;;;;;;5091143;28;20939;-72
2022/07/27 13:40:46;;;;;;;1.53;1.43;;;;;;;;;;5091175;28;20444;-73
2022/07/27 13:43:14;;;;;;;1.97;1.47;;;;;;;;;;5091186;28;20484;-73
2022/07/27 13:45:41;;;;;;;1.80;1.70;;;;;;;;;;5090723;28;20482;-73
2022/07/27 13:48:10;;;;;;;1.67;1.57;;;;;;;;;;5091085;28;20480;-72
2022/07/27 13:50:39;;;;;;;1.60;1.40;;;;;;;;;;5090773;28;20444;-72
2022/07/27 13:53:06;;;;;;;1.50;1.40;;;;;;;;;;5090657;28;20448;-72
2022/07/27 13:55:34;;;;;;;1.60;1.50;;;;;;;;;;5090672;28;20476;-70
2022/07/27 13:58:01;;;;;;;2.13;1.50;;;;;;;;;;5091127;28;20531;-73
2022/07/27 14:00:28;;;;;;;1.43;1.30;;;;;;;;;;5091312;28;20449;-73
2022/07/27 14:02:55;;;;;;;1.67;1.37;;;;;;;;;;5090691;28;20454;-73
2022/07/27 14:05:22;;;;;;;1.37;1.27;;;;;;;;;;5095464;28;20535;-73
2022/07/27 14:07:51;;;;;;;2.00;1.80;;;;;;;;;;5096920;28;20459;-74
2022/07/27 14:10:40;;;;;;;1.80;1.53;;;;;;;;;;5091254;28;20484;-72
2022/07/27 14:13:11;;;;;;;2.30;1.33;;;;;;;;;;5090822;28;20796;-72